Asyut, Egypt
Current Conditions -  °F | °C
As of 6:00 AM on Sunday 26 Oct 2014 (Local Time) from HESG Reporting Station
Clear Clear  
Wind Chill: 64°   Ceiling: Unl
Heat Index: 64°   Visibility: 6mi
Dew Point: 45°   Wind: 8mph
Humidity: 49%   Direction: 270°W
Pressure: 29.91"   Gusts: NA
Location:  27.19°N, 31.18°E
Report Text: HESG 260400Z 27007KT CAVOK 18/07 Q1013 NOSIG
Loading
Personal Weather Stations






























Interactive Weather Map
Tropical Storm Tracking
New forecast layout! Learn more

10-Day Weather Forecast

Advertisements
Track Severe Weather on mobile